createdAt,value
2023-08-12T00:00:12.334Z,17.93
2023-08-12T00:02:45.735Z,17.98
2023-08-12T00:05:15.320Z,17.93
2023-08-12T00:07:44.966Z,17.97
2023-08-12T00:10:14.620Z,18.15
2023-08-12T00:12:43.575Z,18.16
2023-08-12T00:15:12.574Z,18.19
2023-08-12T00:17:42.813Z,18.24
2023-08-12T00:20:14.197Z,18.25
2023-08-12T00:22:42.937Z,18.24
2023-08-12T00:25:11.413Z,18.23
2023-08-12T00:27:40.076Z,18.20
2023-08-12T00:30:10.040Z,18.13
2023-08-12T00:32:38.438Z,18.24
2023-08-12T00:35:07.688Z,18.28
2023-08-12T00:37:37.682Z,18.16
2023-08-12T00:40:07.986Z,18.21
2023-08-12T00:42:36.298Z,18.18
2023-08-12T00:45:05.434Z,18.22
2023-08-12T00:47:34.240Z,18.20
2023-08-12T00:50:04.134Z,18.19
2023-08-12T00:52:32.448Z,18.13
2023-08-12T00:55:02.246Z,18.05
2023-08-12T00:57:30.700Z,18.08
2023-08-12T00:59:59.145Z,18.08
2023-08-12T01:02:27.981Z,18.09
2023-08-12T01:04:56.344Z,18.09
2023-08-12T01:07:24.728Z,17.92
2023-08-12T01:09:53.414Z,18.03
2023-08-12T01:12:29.343Z,18.08
2023-08-12T01:15:13.441Z,18.03
2023-08-12T01:17:45.889Z,18.01
2023-08-12T01:20:15.327Z,18.11
2023-08-12T01:22:47.924Z,18.06
2023-08-12T01:25:18.283Z,17.99
2023-08-12T01:27:46.730Z,18.04
2023-08-12T01:30:17.409Z,18.00
2023-08-12T01:32:56.165Z,18.00
2023-08-12T01:35:31.222Z,18.18
2023-08-12T01:38:04.244Z,17.88
2023-08-12T01:43:04.261Z,18.19
2023-08-12T01:45:34.047Z,18.04
2023-08-12T01:48:04.305Z,18.16
2023-08-12T01:50:32.598Z,18.21
2023-08-12T01:53:01.069Z,18.23
2023-08-12T01:55:33.287Z,18.13
2023-08-12T01:58:01.515Z,18.17
2023-08-12T02:00:29.802Z,18.20
2023-08-12T02:02:58.234Z,18.13
2023-08-12T02:05:27.570Z,18.21
2023-08-12T02:07:55.878Z,18.25
2023-08-12T02:10:24.141Z,18.23
2023-08-12T02:12:53.722Z,18.30
2023-08-12T02:15:22.063Z,18.33
2023-08-12T02:17:50.460Z,17.96
2023-08-12T02:20:20.024Z,18.23
2023-08-12T02:22:48.297Z,18.34
2023-08-12T02:25:17.925Z,18.29
2023-08-12T02:27:46.435Z,18.35
2023-08-12T02:30:16.335Z,18.34
2023-08-12T02:32:45.408Z,18.38
2023-08-12T02:35:13.856Z,18.36
2023-08-12T02:37:42.129Z,18.31
2023-08-12T02:40:12.011Z,18.06
2023-08-12T02:42:40.326Z,18.22
2023-08-12T02:45:09.211Z,18.23
2023-08-12T02:47:38.943Z,18.20
2023-08-12T02:50:09.641Z,18.26
2023-08-12T02:52:37.918Z,18.24
2023-08-12T02:55:07.140Z,18.17
2023-08-12T02:57:35.486Z,18.16
2023-08-12T03:00:05.404Z,18.10
2023-08-12T03:02:34.151Z,17.94
2023-08-12T03:05:03.918Z,17.89
2023-08-12T03:07:32.320Z,17.79
2023-08-12T03:10:01.282Z,17.55
2023-08-12T03:12:29.548Z,17.64
2023-08-12T03:14:57.965Z,17.64
2023-08-12T03:17:26.604Z,17.72
2023-08-12T03:19:55.619Z,17.88
2023-08-12T03:22:25.443Z,17.66
2023-08-12T03:24:54.393Z,17.75
2023-08-12T03:27:22.612Z,17.72
2023-08-12T03:29:52.209Z,17.78
2023-08-12T03:32:20.879Z,17.56
2023-08-12T03:34:49.434Z,17.55
2023-08-12T03:37:18.094Z,17.83
2023-08-12T03:39:48.366Z,17.75
2023-08-12T03:42:18.021Z,17.76
2023-08-12T03:44:46.705Z,17.79
2023-08-12T03:47:15.267Z,17.68
2023-08-12T03:49:43.510Z,17.60
2023-08-12T03:52:12.082Z,17.53
2023-08-12T03:54:40.342Z,17.42
2023-08-12T03:57:10.451Z,17.59
2023-08-12T03:59:39.968Z,17.51
2023-08-12T04:02:08.500Z,17.43
2023-08-12T04:04:36.713Z,17.43
2023-08-12T04:07:05.050Z,17.41
2023-08-12T04:09:33.396Z,17.55
2023-08-12T04:12:01.675Z,17.45
2023-08-12T04:14:31.769Z,17.56
2023-08-12T04:17:00.088Z,17.29
2023-08-12T04:19:28.808Z,17.44
2023-08-12T04:21:57.244Z,17.22
2023-08-12T04:24:25.782Z,17.56
2023-08-12T04:26:54.401Z,17.59
2023-08-12T04:29:22.724Z,17.58
2023-08-12T04:31:53.758Z,17.57
2023-08-12T04:34:22.416Z,17.59
2023-08-12T04:36:52.046Z,17.41
2023-08-12T04:39:20.343Z,17.49
2023-08-12T04:41:49.071Z,17.53
2023-08-12T04:44:17.626Z,17.38
2023-08-12T04:46:46.032Z,17.60
2023-08-12T04:49:15.725Z,17.56
2023-08-12T04:51:44.995Z,17.44
2023-08-12T04:54:15.790Z,17.43
2023-08-12T04:56:44.741Z,17.31
2023-08-12T04:59:13.168Z,17.43
2023-08-12T05:01:54.545Z,17.47
2023-08-12T05:04:30.949Z,17.51
2023-08-12T05:06:59.222Z,17.46
2023-08-12T05:09:27.804Z,17.45
2023-08-12T05:11:56.176Z,17.43
2023-08-12T05:14:24.755Z,17.43
2023-08-12T05:16:53.075Z,17.41
2023-08-12T05:19:21.403Z,17.34
2023-08-12T05:21:51.104Z,17.07
2023-08-12T05:24:19.569Z,17.45
2023-08-12T05:26:48.503Z,17.52
2023-08-12T05:29:16.804Z,17.50
2023-08-12T05:31:45.253Z,17.42
2023-08-12T05:34:13.610Z,17.44
2023-08-12T05:36:42.164Z,17.47
2023-08-12T05:39:12.220Z,17.55
2023-08-12T05:41:40.662Z,17.49
2023-08-12T05:44:09.603Z,17.44
2023-08-12T05:46:37.801Z,17.59
2023-08-12T05:49:07.505Z,17.61
2023-08-12T05:51:36.199Z,17.70
2023-08-12T05:54:04.681Z,17.57
2023-08-12T05:56:36.606Z,17.76
2023-08-12T05:59:06.269Z,17.49
2023-08-12T06:01:34.814Z,17.66
2023-08-12T06:04:03.396Z,17.58
2023-08-12T06:06:31.915Z,17.62
2023-08-12T06:09:00.210Z,17.25
2023-08-12T06:11:28.481Z,17.45
2023-08-12T06:13:58.082Z,17.41
2023-08-12T06:16:26.426Z,17.01
2023-08-12T06:18:54.878Z,16.94
2023-08-12T06:21:23.159Z,16.83
2023-08-12T06:23:51.442Z,16.77
2023-08-12T06:26:19.655Z,16.62
2023-08-12T06:28:47.920Z,16.96
2023-08-12T06:31:17.539Z,16.87
2023-08-12T06:33:45.810Z,16.87
2023-08-12T06:36:14.180Z,16.94
2023-08-12T06:38:42.488Z,16.54
2023-08-12T06:41:10.762Z,17.02
2023-08-12T06:43:39.251Z,17.16
2023-08-12T06:46:07.760Z,17.29
2023-08-12T06:48:37.513Z,16.89
2023-08-12T06:51:11.385Z,17.03
2023-08-12T06:53:40.769Z,16.94
2023-08-12T06:56:09.143Z,17.13
2023-08-12T06:58:37.391Z,16.92
2023-08-12T07:01:05.776Z,17.16
2023-08-12T07:03:34.720Z,17.15
2023-08-12T07:06:04.484Z,17.19
2023-08-12T07:08:33.312Z,17.17
2023-08-12T07:11:01.654Z,17.22
2023-08-12T07:13:30.025Z,17.15
2023-08-12T07:15:58.408Z,17.17
2023-08-12T07:18:26.753Z,17.18
2023-08-12T07:20:54.983Z,17.16
2023-08-12T07:23:24.701Z,17.17
2023-08-12T07:25:53.420Z,17.10
2023-08-12T07:28:21.710Z,16.65
2023-08-12T07:30:51.260Z,16.84
2023-08-12T07:33:19.563Z,16.75
2023-08-12T07:35:47.862Z,17.21
2023-08-12T07:38:16.087Z,17.48
2023-08-12T07:40:45.656Z,17.54
2023-08-12T07:43:13.973Z,17.39
2023-08-12T07:45:42.247Z,18.14
2023-08-12T07:48:10.642Z,18.34
2023-08-12T07:50:39.034Z,18.36
2023-08-12T07:53:07.372Z,18.03
2023-08-12T07:55:37.145Z,18.13
2023-08-12T07:58:06.773Z,18.04
2023-08-12T08:00:35.821Z,16.90
2023-08-12T08:03:04.237Z,16.29
2023-08-12T08:05:32.894Z,15.68
2023-08-12T08:08:01.545Z,15.02
2023-08-12T08:10:29.760Z,15.34
2023-08-12T08:12:58.167Z,15.26
2023-08-12T08:15:27.862Z,14.83
2023-08-12T08:17:57.081Z,15.10
2023-08-12T08:20:25.556Z,14.81
2023-08-12T08:22:56.302Z,14.67
2023-08-12T08:25:26.982Z,14.33
2023-08-12T08:27:55.841Z,14.41
2023-08-12T08:30:25.436Z,15.30
2023-08-12T08:32:55.100Z,15.66
2023-08-12T08:35:23.753Z,15.67
2023-08-12T08:37:52.077Z,15.79
2023-08-12T08:40:22.004Z,16.17
2023-08-12T08:42:55.148Z,16.16
2023-08-12T08:45:24.856Z,16.48
2023-08-12T08:47:59.042Z,16.83
2023-08-12T08:50:28.040Z,16.77
2023-08-12T08:52:58.398Z,16.99
2023-08-12T08:55:27.051Z,17.00
2023-08-12T08:58:02.229Z,16.97
2023-08-12T09:00:31.030Z,16.91
2023-08-12T09:03:01.547Z,16.50
2023-08-12T09:05:31.458Z,16.73
2023-08-12T09:08:01.849Z,16.68
2023-08-12T09:10:32.134Z,16.63
2023-08-12T09:13:00.472Z,17.02
2023-08-12T09:15:28.874Z,17.73
2023-08-12T09:17:58.188Z,18.30
2023-08-12T09:20:28.620Z,18.82
2023-08-12T09:23:01.891Z,19.28
2023-08-12T09:25:31.251Z,19.39
2023-08-12T09:28:01.911Z,19.53
2023-08-12T09:30:32.533Z,19.39
2023-08-12T09:33:05.628Z,19.69
2023-08-12T09:35:37.778Z,18.98
2023-08-12T09:38:08.928Z,19.33
2023-08-12T09:40:38.857Z,19.72
2023-08-12T09:43:07.969Z,19.75
2023-08-12T09:45:37.967Z,19.86
2023-08-12T09:48:09.095Z,19.47
2023-08-12T09:50:39.203Z,19.12
2023-08-12T09:53:07.988Z,19.15
2023-08-12T09:55:38.586Z,18.83
2023-08-12T09:58:12.176Z,19.09
2023-08-12T10:00:42.586Z,19.03
2023-08-12T10:03:15.412Z,19.25
2023-08-12T10:05:46.098Z,19.31
2023-08-12T10:08:16.186Z,19.13
2023-08-12T10:10:56.062Z,19.37
2023-08-12T10:13:31.974Z,19.45
2023-08-12T10:16:00.710Z,19.21
2023-08-12T10:18:30.989Z,19.57
2023-08-12T10:21:02.660Z,19.24
2023-08-12T10:23:31.920Z,19.25
2023-08-12T10:26:02.060Z,19.32
2023-08-12T10:28:32.782Z,19.45
2023-08-12T10:31:01.207Z,20.22
2023-08-12T10:33:29.900Z,20.29
2023-08-12T10:36:00.001Z,20.43
2023-08-12T10:38:28.723Z,20.14
2023-08-12T10:41:18.887Z,19.73
2023-08-12T10:44:07.383Z,19.86
2023-08-12T10:46:37.563Z,19.80
2023-08-12T10:49:08.819Z,19.07
2023-08-12T10:51:48.309Z,19.14
2023-08-12T10:54:18.547Z,18.68
2023-08-12T10:57:16.014Z,18.34
2023-08-12T10:59:59.581Z,18.72
2023-08-12T11:02:33.938Z,19.50
2023-08-12T11:05:05.241Z,19.53
2023-08-12T11:07:44.233Z,19.69
2023-08-12T11:10:15.776Z,20.27
2023-08-12T11:12:50.972Z,20.12
2023-08-12T11:15:20.839Z,20.31
2023-08-12T11:17:50.771Z,20.28
2023-08-12T11:20:19.956Z,20.25
2023-08-12T11:22:49.814Z,20.64
2023-08-12T11:25:20.534Z,20.77
2023-08-12T11:27:50.296Z,21.15
2023-08-12T11:30:21.417Z,21.43
2023-08-12T11:32:52.289Z,21.68
2023-08-12T11:35:22.150Z,22.17
2023-08-12T11:37:54.316Z,21.65
2023-08-12T11:40:23.228Z,21.37
2023-08-12T11:42:53.470Z,21.37
2023-08-12T11:45:24.847Z,21.20
2023-08-12T11:47:55.371Z,21.01
2023-08-12T11:50:26.486Z,20.96
2023-08-12T11:52:58.336Z,21.06
2023-08-12T11:55:27.666Z,21.22
2023-08-12T11:57:56.046Z,20.89
2023-08-12T12:00:27.411Z,20.80
2023-08-12T12:02:58.685Z,20.84
2023-08-12T12:05:31.231Z,20.65
2023-08-12T12:08:02.277Z,20.80
2023-08-12T12:10:34.880Z,20.67
2023-08-12T12:13:06.107Z,21.00
2023-08-12T12:15:40.603Z,20.95
2023-08-12T12:18:13.686Z,20.97
2023-08-12T12:20:56.804Z,20.84
2023-08-12T12:23:30.113Z,21.18
2023-08-12T12:26:03.206Z,20.91
2023-08-12T12:28:33.042Z,20.91
2023-08-12T12:31:01.419Z,20.43
2023-08-12T12:33:29.824Z,20.63
2023-08-12T12:36:01.030Z,21.06
2023-08-12T12:38:32.285Z,21.23
2023-08-12T12:41:00.552Z,21.45
2023-08-12T12:43:28.822Z,21.48
2023-08-12T12:45:57.292Z,21.47
2023-08-12T12:48:25.627Z,21.39
2023-08-12T12:50:53.881Z,21.36
2023-08-12T12:53:22.165Z,21.49
2023-08-12T12:55:52.074Z,21.51
2023-08-12T12:58:20.502Z,21.47
2023-08-12T13:00:48.767Z,21.48
2023-08-12T13:03:17.417Z,21.27
2023-08-12T13:05:45.775Z,21.63
2023-08-12T13:08:14.132Z,21.88
2023-08-12T13:10:42.498Z,21.81
2023-08-12T13:13:12.413Z,21.82
2023-08-12T13:15:40.945Z,21.73
2023-08-12T13:18:09.584Z,21.49
2023-08-12T13:20:38.502Z,21.71
2023-08-12T13:23:07.289Z,21.93
2023-08-12T13:25:36.492Z,21.62
2023-08-12T13:28:06.282Z,21.46
2023-08-12T13:30:36.665Z,21.49
2023-08-12T13:33:06.047Z,21.80
2023-08-12T13:35:34.651Z,22.38
2023-08-12T13:38:02.956Z,22.71
2023-08-12T13:40:32.280Z,22.67
2023-08-12T13:43:00.996Z,22.36
2023-08-12T13:45:29.635Z,22.89
2023-08-12T13:47:59.324Z,23.20
2023-08-12T13:50:27.846Z,23.27
2023-08-12T13:52:56.377Z,23.28
2023-08-12T13:55:24.962Z,22.83
2023-08-12T13:57:53.655Z,22.94
2023-08-12T14:00:22.052Z,22.61
2023-08-12T14:02:50.561Z,22.24
2023-08-12T14:05:21.048Z,22.34
2023-08-12T14:07:49.470Z,22.96
2023-08-12T14:10:17.975Z,23.13
2023-08-12T14:12:46.206Z,23.08
2023-08-12T14:15:14.593Z,23.02
2023-08-12T14:17:44.378Z,22.89
2023-08-12T14:20:16.300Z,22.94
2023-08-12T14:22:46.295Z,23.29
2023-08-12T14:25:14.907Z,23.10
2023-08-12T14:27:43.786Z,22.82
2023-08-12T14:30:13.892Z,22.81
2023-08-12T14:32:42.224Z,22.82
2023-08-12T14:35:11.174Z,22.61
2023-08-12T14:37:39.395Z,22.03
2023-08-12T14:40:10.869Z,21.95
2023-08-12T14:42:39.214Z,22.31
2023-08-12T14:45:09.438Z,22.12
2023-08-12T14:47:37.618Z,22.11
2023-08-12T14:50:07.146Z,21.97
2023-08-12T14:52:35.625Z,21.97
2023-08-12T14:55:04.327Z,20.99
2023-08-12T14:57:34.159Z,20.84
2023-08-12T15:00:02.550Z,20.76
2023-08-12T15:02:33.092Z,20.57
2023-08-12T15:05:03.033Z,20.47
2023-08-12T15:07:31.282Z,20.76
2023-08-12T15:10:00.444Z,21.10
2023-08-12T15:12:29.252Z,21.52
2023-08-12T15:14:59.532Z,21.25
2023-08-12T15:17:27.871Z,21.52
2023-08-12T15:19:56.497Z,21.63
2023-08-12T15:22:25.111Z,21.34
2023-08-12T15:24:54.233Z,21.36
2023-08-12T15:27:22.714Z,21.13
2023-08-12T15:29:51.006Z,21.07
2023-08-12T15:32:20.605Z,21.26
2023-08-12T15:34:48.904Z,21.01
2023-08-12T15:37:17.153Z,21.18
2023-08-12T15:39:45.718Z,21.43
2023-08-12T15:42:13.949Z,21.53
2023-08-12T15:44:43.003Z,21.53
2023-08-12T15:47:11.722Z,22.12
2023-08-12T15:49:41.697Z,22.06
2023-08-12T15:52:10.080Z,21.96
2023-08-12T15:54:38.353Z,21.92
2023-08-12T15:57:08.948Z,21.65
2023-08-12T15:59:37.272Z,21.59
2023-08-12T16:02:05.806Z,21.64
2023-08-12T16:04:34.216Z,21.44
2023-08-12T16:07:03.892Z,21.44
2023-08-12T16:09:32.221Z,21.41
2023-08-12T16:12:00.494Z,21.45
2023-08-12T16:14:28.665Z,21.15
2023-08-12T16:16:56.849Z,21.39
2023-08-12T16:19:25.325Z,21.74
2023-08-12T16:21:53.548Z,21.91
2023-08-12T16:24:23.502Z,21.79
2023-08-12T16:26:51.743Z,22.06
2023-08-12T16:29:20.047Z,21.91
2023-08-12T16:31:48.441Z,21.64
2023-08-12T16:34:16.693Z,21.74
2023-08-12T16:36:45.077Z,21.71
2023-08-12T16:39:13.281Z,21.62
2023-08-12T16:41:43.347Z,21.83
2023-08-12T16:44:11.660Z,21.80
2023-08-12T16:46:40.909Z,21.76
2023-08-12T16:49:09.200Z,21.27
2023-08-12T16:51:37.404Z,21.18
2023-08-12T16:54:06.043Z,20.64
2023-08-12T16:56:34.231Z,20.63
2023-08-12T16:59:04.353Z,20.43
2023-08-12T17:01:32.931Z,20.52
2023-08-12T17:04:02.649Z,20.59
2023-08-12T17:06:30.946Z,20.44
2023-08-12T17:08:59.223Z,20.73
2023-08-12T17:11:27.597Z,21.14
2023-08-12T17:13:56.059Z,20.93
2023-08-12T17:16:25.867Z,20.83
2023-08-12T17:18:54.238Z,21.07
2023-08-12T17:21:22.578Z,21.12
2023-08-12T17:23:51.060Z,21.01
2023-08-12T17:26:19.443Z,20.75
2023-08-12T17:28:47.663Z,20.65
2023-08-12T17:31:17.450Z,20.42
2023-08-12T17:33:47.792Z,20.36
2023-08-12T17:36:16.022Z,20.47
2023-08-12T17:38:43.205Z,20.31
2023-08-12T17:41:11.417Z,20.61
2023-08-12T17:43:42.480Z,20.23
2023-08-12T17:46:13.401Z,20.16
2023-08-12T17:48:42.015Z,20.00
2023-08-12T17:51:13.927Z,19.47
2023-08-12T17:53:42.438Z,19.58
2023-08-12T17:56:10.884Z,19.29
2023-08-12T17:58:39.338Z,18.99
2023-08-12T18:01:08.037Z,19.04
2023-08-12T18:03:36.464Z,18.99
2023-08-12T18:06:06.015Z,19.02
2023-08-12T18:08:35.849Z,19.02
2023-08-12T18:11:04.959Z,18.90
2023-08-12T18:13:33.283Z,18.78
2023-08-12T18:16:01.760Z,18.97
2023-08-12T18:18:31.264Z,19.10
2023-08-12T18:20:59.699Z,18.75
2023-08-12T18:23:30.004Z,18.33
2023-08-12T18:25:59.698Z,18.55
2023-08-12T18:28:28.119Z,18.35
2023-08-12T18:30:56.482Z,18.26
2023-08-12T18:33:24.688Z,18.50
2023-08-12T18:35:52.973Z,18.42
2023-08-12T18:38:21.280Z,18.07
2023-08-12T18:40:49.524Z,18.10
2023-08-12T18:43:19.236Z,18.27
2023-08-12T18:45:47.479Z,18.40
2023-08-12T18:48:15.936Z,18.34
2023-08-12T18:50:44.393Z,18.33
2023-08-12T18:53:13.186Z,18.07
2023-08-12T18:55:41.452Z,18.08
2023-08-12T18:58:09.879Z,17.96
2023-08-12T19:00:39.471Z,17.81
2023-08-12T19:03:08.436Z,17.79
2023-08-12T19:05:37.658Z,17.63
2023-08-12T19:08:06.733Z,17.57
2023-08-12T19:10:35.159Z,17.42
2023-08-12T19:13:03.453Z,17.42
2023-08-12T19:15:31.811Z,17.35
2023-08-12T19:18:01.471Z,17.29
2023-08-12T19:20:29.786Z,16.99
2023-08-12T19:22:58.051Z,17.05
2023-08-12T19:25:26.301Z,17.19
2023-08-12T19:27:54.621Z,17.22
2023-08-12T19:30:23.017Z,17.15
2023-08-12T19:32:53.552Z,17.03
2023-08-12T19:35:23.914Z,16.95
2023-08-12T19:37:52.973Z,17.08
2023-08-12T19:40:21.895Z,17.06
2023-08-12T19:42:50.144Z,16.98
2023-08-12T19:45:18.587Z,16.87
2023-08-12T19:47:47.019Z,16.77
2023-08-12T19:50:15.387Z,16.67
2023-08-12T19:52:44.976Z,16.50
2023-08-12T19:55:13.224Z,16.71
2023-08-12T19:57:41.884Z,16.46
2023-08-12T20:00:11.841Z,16.64
2023-08-12T20:02:42.524Z,16.49
2023-08-12T20:05:16.315Z,16.42
2023-08-12T20:07:47.994Z,16.36
2023-08-12T20:10:18.028Z,16.48
2023-08-12T20:12:47.455Z,16.47
2023-08-12T20:15:16.236Z,16.44
2023-08-12T20:17:45.650Z,16.25
2023-08-12T20:20:18.282Z,16.32
2023-08-12T20:25:21.828Z,16.09
2023-08-12T20:27:50.036Z,16.16
2023-08-12T20:30:18.306Z,16.14
2023-08-12T20:32:46.600Z,15.91
2023-08-12T20:35:14.978Z,15.95
2023-08-12T20:37:43.300Z,15.84
2023-08-12T20:40:14.743Z,15.92
2023-08-12T20:42:43.001Z,15.88
2023-08-12T20:45:13.305Z,15.82
2023-08-12T20:47:42.429Z,15.75
2023-08-12T20:50:12.628Z,15.78
2023-08-12T20:52:40.904Z,15.75
2023-08-12T20:55:10.326Z,15.77
2023-08-12T20:57:39.926Z,15.73
2023-08-12T21:00:12.997Z,15.74
2023-08-12T21:02:43.851Z,15.66
2023-08-12T21:05:12.153Z,15.64
2023-08-12T21:07:40.590Z,15.66
2023-08-12T21:10:11.288Z,15.56
2023-08-12T21:12:41.381Z,15.72
2023-08-12T21:15:10.605Z,15.59
2023-08-12T21:17:38.990Z,15.75
2023-08-12T21:20:09.923Z,15.76
2023-08-12T21:22:38.080Z,15.59
2023-08-12T21:25:08.076Z,15.62
2023-08-12T21:27:36.296Z,15.60
2023-08-12T21:30:07.380Z,15.55
2023-08-12T21:32:35.721Z,15.30
2023-08-12T21:35:04.048Z,15.33
2023-08-12T21:37:32.263Z,15.30
2023-08-12T21:40:00.717Z,15.27
2023-08-12T21:42:28.995Z,15.23
2023-08-12T21:44:57.329Z,15.20
2023-08-12T21:47:27.252Z,15.12
2023-08-12T21:49:55.597Z,14.73
2023-08-12T21:52:23.815Z,15.00
2023-08-12T21:54:52.037Z,14.91
2023-08-12T21:57:20.659Z,14.95
2023-08-12T21:59:48.964Z,14.86
2023-08-12T22:02:26.080Z,14.70
2023-08-12T22:04:55.077Z,14.84
2023-08-12T22:07:24.016Z,14.68
2023-08-12T22:09:52.474Z,14.30
2023-08-12T22:12:20.898Z,14.36
2023-08-12T22:14:49.253Z,14.19
2023-08-12T22:17:17.597Z,14.17
2023-08-12T22:19:48.880Z,14.12
2023-08-12T22:22:19.633Z,13.99
2023-08-12T22:24:48.693Z,14.01
2023-08-12T22:27:17.047Z,14.25
2023-08-12T22:29:45.514Z,14.32
2023-08-12T22:32:14.181Z,14.22
2023-08-12T22:34:42.610Z,14.24
2023-08-12T22:37:12.335Z,14.42
2023-08-12T22:39:40.575Z,14.43
2023-08-12T22:42:09.198Z,14.41
2023-08-12T22:44:37.511Z,14.37
2023-08-12T22:47:06.850Z,14.45
2023-08-12T22:49:35.104Z,14.44
2023-08-12T22:52:03.308Z,14.25
2023-08-12T22:54:35.002Z,14.44
2023-08-12T22:57:03.195Z,14.57
2023-08-12T22:59:31.356Z,14.57
2023-08-12T23:01:59.683Z,14.50
2023-08-12T23:04:27.938Z,14.46
2023-08-12T23:06:56.125Z,14.50
2023-08-12T23:09:24.779Z,14.46
2023-08-12T23:11:54.404Z,14.58
2023-08-12T23:14:22.705Z,14.42
2023-08-12T23:16:51.291Z,14.31
2023-08-12T23:19:19.823Z,14.43
2023-08-12T23:21:48.237Z,14.44
2023-08-12T23:24:16.498Z,14.34
2023-08-12T23:26:47.433Z,14.35
2023-08-12T23:29:17.247Z,14.26
2023-08-12T23:31:45.577Z,14.31
2023-08-12T23:34:13.938Z,14.33
2023-08-12T23:36:42.201Z,14.30
2023-08-12T23:39:11.695Z,14.00
2023-08-12T23:41:40.151Z,14.19
2023-08-12T23:44:08.826Z,14.15
2023-08-12T23:46:38.682Z,14.21
2023-08-12T23:49:07.565Z,14.14
2023-08-12T23:51:35.945Z,14.10
2023-08-12T23:54:04.259Z,13.89
2023-08-12T23:56:32.479Z,14.08
2023-08-12T23:59:00.681Z,14.01
